Piedmont, California
Current Conditions -  °F | °C
As of 12:53 AM on Friday 31 Oct 2014 (Local Time) from KOAK Reporting Station
Scattered Clouds Scattered Clouds  
Wind Chill: 63°   Ceiling: Unl
Heat Index: 63°   Visibility: 10mi
Dew Point: 54°   Wind: 8mph
Humidity: 72%   Direction: 200°SSW
Pressure: 29.91"   Gusts: NA
Location:  37.82°N, 122.23°W
Report Text: KOAK 310753Z 20007KT 10SM FEW010 SCT180 17/12 A2991 RMK AO2 SLP129 T01720122 402170122
Loading
Personal Weather Stations






























Interactive Weather Map
Tropical Storm Tracking
New forecast layout! Learn more

10-Day Weather Forecast

Advertisements
Track Severe Weather on mobile